Time;durP1;ratioP1;P1;durP2;ratioP2;P2;SDS_P1;SDS_P2;PMS_P1;PMS_P2;Temp;Humidity;BMP_temperature;BMP_pressure;BME280_temperature;BME280_humidity;BME280_pressure;Samples;Min_cycle;Max_cycle;Signal;HPM_P1;HPM_P2
2021/08/02 00:00:53;;;;;;;7.97;6.37;;;15.90;99.90;;;;;;5069691;28;20505;-73
2021/08/02 00:03:28;;;;;;;7.20;6.07;;;15.90;99.90;;;;;;5069768;28;20382;-74
2021/08/02 00:05:57;;;;;;;7.70;6.90;;;15.90;99.90;;;;;;5070078;28;20385;-74
2021/08/02 00:08:25;;;;;;;6.80;6.10;;;15.90;99.90;;;;;;5069353;28;20394;-74
2021/08/02 00:10:51;;;;;;;7.00;5.70;;;15.90;99.90;;;;;;5049624;28;20387;-74
2021/08/02 00:13:35;;;;;;;6.83;6.13;;;15.90;99.90;;;;;;5049855;28;20427;-74
2021/08/02 00:16:03;;;;;;;7.17;6.43;;;15.90;99.90;;;;;;5049460;28;20391;-73
2021/08/02 00:18:31;;;;;;;6.37;5.80;;;15.90;99.90;;;;;;5049528;28;20386;-73
2021/08/02 00:21:00;;;;;;;6.77;5.97;;;15.90;99.90;;;;;;5049469;28;20482;-74
2021/08/02 00:23:26;;;;;;;7.13;6.43;;;15.80;99.90;;;;;;5049353;28;20728;-74
2021/08/02 00:25:53;;;;;;;6.53;5.53;;;15.80;99.90;;;;;;5050127;28;20525;-73
2021/08/02 00:28:20;;;;;;;6.70;6.00;;;15.80;99.90;;;;;;5049704;28;20281;-74
2021/08/02 00:30:46;;;;;;;6.83;6.10;;;15.80;99.90;;;;;;5049264;28;20766;-74
2021/08/02 00:33:12;;;;;;;9.27;6.90;;;15.80;99.90;;;;;;5049374;28;20429;-73
2021/08/02 00:35:45;;;;;;;11.70;8.93;;;15.90;99.90;;;;;;5049041;28;20900;-74
2021/08/02 00:38:18;;;;;;;17.60;9.63;;;15.90;99.90;;;;;;5049009;28;20391;-73
2021/08/02 00:44:00;;;;;;;11.47;8.50;;;15.90;99.90;;;;;;5061599;28;21168;-73
2021/08/02 00:46:32;;;;;;;10.20;6.77;;;15.90;99.90;;;;;;5048803;28;20450;-73
2021/08/02 00:49:04;;;;;;;13.27;8.27;;;15.90;99.90;;;;;;5049620;28;20391;-73
2021/08/02 00:51:37;;;;;;;9.17;7.30;;;15.90;99.90;;;;;;5049693;28;20395;-73
2021/08/02 00:54:03;;;;;;;9.80;7.30;;;15.90;99.90;;;;;;5049611;28;20417;-73
2021/08/02 00:56:32;;;;;;;10.50;7.60;;;15.90;99.90;;;;;;5049455;28;20395;-73
2021/08/02 00:59:01;;;;;;;8.67;7.20;;;15.90;99.90;;;;;;5049403;28;20391;-73
2021/08/02 01:01:27;;;;;;;11.87;8.73;;;16.00;99.90;;;;;;5049340;28;20555;-73
2021/08/02 01:03:54;;;;;;;9.50;6.00;;;16.00;99.90;;;;;;5049523;28;20455;-73
2021/08/02 01:06:20;;;;;;;8.20;6.93;;;16.00;99.90;;;;;;5049391;28;20406;-73
2021/08/02 01:08:48;;;;;;;8.40;6.23;;;15.90;99.90;;;;;;5049317;28;20406;-73
2021/08/02 01:11:16;;;;;;;13.50;8.47;;;15.90;99.90;;;;;;5049091;28;20407;-73
2021/08/02 01:13:43;;;;;;;17.97;10.83;;;15.90;99.90;;;;;;5049375;28;20460;-73
2021/08/02 01:16:10;;;;;;;9.37;7.57;;;15.90;99.90;;;;;;5049260;28;20395;-73
2021/08/02 01:18:37;;;;;;;14.10;8.13;;;15.90;99.90;;;;;;5048921;28;20425;-73
2021/08/02 01:21:06;;;;;;;10.37;7.80;;;15.90;99.90;;;;;;5048847;28;20457;-73
2021/08/02 01:23:34;;;;;;;9.67;6.70;;;15.90;99.90;;;;;;5049209;28;20411;-73
2021/08/02 01:29:19;;;;;;;10.90;7.60;;;15.90;99.90;;;;;;5069855;28;20741;-73
2021/08/02 01:31:44;;;;;;;7.77;6.40;;;15.90;99.90;;;;;;5068571;28;20404;-73
2021/08/02 01:34:10;;;;;;;7.97;6.50;;;15.90;99.90;;;;;;5063313;28;20501;-73
2021/08/02 01:36:36;;;;;;;6.83;5.90;;;15.90;99.90;;;;;;5050150;28;20191;-73
2021/08/02 01:39:01;;;;;;;7.70;5.67;;;15.90;99.90;;;;;;5049476;28;20168;-73
2021/08/02 01:41:27;;;;;;;8.73;5.63;;;15.90;99.90;;;;;;5049550;28;20622;-73
2021/08/02 01:43:52;;;;;;;6.03;5.13;;;15.90;99.90;;;;;;5049694;28;20167;-73
2021/08/02 01:46:33;;;;;;;6.67;5.50;;;15.90;99.90;;;;;;5049460;28;20525;-73
2021/08/02 01:49:23;;;;;;;8.47;5.23;;;15.90;99.90;;;;;;5049417;28;20156;-73
2021/08/02 01:51:51;;;;;;;8.80;5.87;;;15.90;99.90;;;;;;5049887;28;20450;-73
2021/08/02 01:54:37;;;;;;;10.77;6.37;;;15.90;99.90;;;;;;5049781;28;20497;-73
2021/08/02 01:59:44;;;;;;;9.93;6.17;;;15.90;99.90;;;;;;5069702;28;20516;-73
2021/08/02 02:02:13;;;;;;;16.20;7.23;;;15.90;99.90;;;;;;5069752;28;20402;-73
2021/08/02 02:04:48;;;;;;;8.30;5.30;;;15.80;99.90;;;;;;5069676;28;20400;-73
2021/08/02 02:07:15;;;;;;;7.47;5.03;;;15.80;99.90;;;;;;5069532;28;20455;-73
2021/08/02 02:09:41;;;;;;;8.90;5.90;;;15.80;99.90;;;;;;5050668;28;20442;-73
2021/08/02 02:12:09;;;;;;;4.43;3.37;;;15.80;99.90;;;;;;5050120;28;20415;-73
2021/08/02 02:14:37;;;;;;;4.77;2.70;;;15.80;99.90;;;;;;5049534;28;20395;-73
2021/08/02 02:17:04;;;;;;;3.57;2.50;;;15.80;99.90;;;;;;5049363;28;20395;-73
2021/08/02 02:19:31;;;;;;;3.17;2.50;;;15.80;99.90;;;;;;5049292;28;20462;-73
2021/08/02 02:21:58;;;;;;;3.60;2.97;;;15.80;99.90;;;;;;5049940;28;20395;-72
2021/08/02 02:24:25;;;;;;;3.03;2.00;;;15.80;99.90;;;;;;5049770;28;20426;-72
2021/08/02 02:26:52;;;;;;;3.97;2.47;;;15.70;99.90;;;;;;5049900;28;20411;-72
2021/08/02 02:29:19;;;;;;;2.87;2.57;;;15.80;99.90;;;;;;5049816;28;20425;-72
2021/08/02 02:31:47;;;;;;;2.70;2.30;;;15.70;99.90;;;;;;5049075;28;20399;-72
2021/08/02 02:34:14;;;;;;;4.07;2.80;;;15.70;99.90;;;;;;5049210;28;20401;-72
2021/08/02 02:36:41;;;;;;;2.53;2.00;;;15.70;99.90;;;;;;5049108;28;20461;-72
2021/08/02 02:39:08;;;;;;;5.23;2.30;;;15.70;99.90;;;;;;5049287;28;20446;-72
2021/08/02 02:41:35;;;;;;;2.57;2.37;;;15.70;99.90;;;;;;5049492;28;20414;-72
2021/08/02 02:44:02;;;;;;;2.53;1.90;;;15.70;99.90;;;;;;5049293;28;20403;-72
2021/08/02 02:46:29;;;;;;;3.40;2.70;;;15.70;99.90;;;;;;5068025;28;20460;-72
2021/08/02 02:48:55;;;;;;;3.43;2.30;;;15.70;99.90;;;;;;5068718;28;20396;-72
2021/08/02 02:51:22;;;;;;;6.63;2.43;;;15.70;99.90;;;;;;5068701;28;20402;-72
2021/08/02 02:53:49;;;;;;;3.47;2.70;;;15.70;99.90;;;;;;5068743;28;20460;-71
2021/08/02 02:56:16;;;;;;;3.10;2.50;;;15.70;99.90;;;;;;5068807;28;20394;-71
2021/08/02 02:58:42;;;;;;;2.47;2.00;;;15.70;99.90;;;;;;5067330;28;20801;-71
2021/08/02 03:01:12;;;;;;;4.30;2.50;;;15.70;99.90;;;;;;5067929;28;20401;-71
2021/08/02 03:03:43;;;;;;;4.30;3.17;;;15.80;99.90;;;;;;5068485;28;20444;-71
2021/08/02 03:06:09;;;;;;;4.43;2.57;;;15.70;99.90;;;;;;5068378;28;20402;-71
2021/08/02 03:08:37;;;;;;;5.33;3.20;;;15.70;99.90;;;;;;5068343;28;20394;-71
2021/08/02 03:11:05;;;;;;;4.57;3.00;;;15.70;99.90;;;;;;5047331;28;20426;-71
2021/08/02 03:13:31;;;;;;;5.07;3.70;;;15.70;99.90;;;;;;5035254;28;20903;-71
2021/08/02 03:15:57;;;;;;;5.90;3.40;;;15.70;99.90;;;;;;5035790;28;20411;-71
2021/08/02 03:18:23;;;;;;;4.50;3.93;;;15.70;99.90;;;;;;5035485;28;20447;-71
2021/08/02 03:20:48;;;;;;;8.80;3.30;;;15.70;99.90;;;;;;5035143;28;20532;-71
2021/08/02 03:28:43;;;;;;;6.17;2.80;;;15.70;99.90;;;;;;5069677;28;20509;-70
2021/08/02 03:31:13;;;;;;;3.73;2.90;;;15.60;99.90;;;;;;5069812;28;20429;-72
2021/08/02 03:33:41;;;;;;;3.43;2.50;;;15.60;99.90;;;;;;5059289;28;20426;-72
2021/08/02 03:36:11;;;;;;;3.03;2.73;;;15.60;99.90;;;;;;5050060;28;20947;-72
2021/08/02 03:38:39;;;;;;;6.37;2.93;;;15.50;99.90;;;;;;5050009;28;20947;-72
2021/08/02 03:41:06;;;;;;;3.27;2.70;;;15.50;99.90;;;;;;5049557;28;20422;-72
2021/08/02 03:43:36;;;;;;;6.97;3.00;;;15.50;99.90;;;;;;5049460;28;20500;-72
2021/08/02 03:46:05;;;;;;;3.47;3.03;;;15.50;99.90;;;;;;5049319;28;20398;-73
2021/08/02 03:48:31;;;;;;;3.50;2.27;;;15.50;99.90;;;;;;5049308;28;20426;-73
2021/08/02 03:50:57;;;;;;;2.87;2.47;;;15.50;99.90;;;;;;5049978;28;20414;-72
2021/08/02 03:53:23;;;;;;;2.47;1.80;;;15.40;99.90;;;;;;5050226;28;20414;-72
2021/08/02 03:55:51;;;;;;;3.13;2.30;;;15.50;99.90;;;;;;5049342;28;20480;-72
2021/08/02 03:58:17;;;;;;;4.30;2.03;;;15.50;99.90;;;;;;5049111;28;20211;-72
2021/08/02 04:00:42;;;;;;;3.57;2.33;;;15.40;99.90;;;;;;5049263;28;20399;-72
2021/08/02 04:03:08;;;;;;;2.83;1.90;;;15.40;99.90;;;;;;5049170;28;20402;-72
2021/08/02 04:05:35;;;;;;;2.83;1.53;;;15.40;99.90;;;;;;5049365;28;20164;-72
2021/08/02 04:08:00;;;;;;;2.60;1.77;;;15.40;99.90;;;;;;5049775;28;20200;-72
2021/08/02 04:10:29;;;;;;;3.30;2.10;;;15.40;99.90;;;;;;5049546;28;20933;-72
2021/08/02 04:12:55;;;;;;;3.17;2.00;;;15.40;99.90;;;;;;5048940;28;20263;-72
2021/08/02 04:15:21;;;;;;;2.80;1.70;;;15.40;99.90;;;;;;5049072;28;20423;-73
2021/08/02 04:17:46;;;;;;;4.03;1.87;;;15.40;99.90;;;;;;5048940;28;20398;-73
2021/08/02 04:20:14;;;;;;;3.30;1.63;;;15.40;99.90;;;;;;5049280;28;20906;-73
2021/08/02 04:22:40;;;;;;;3.80;1.90;;;15.40;99.90;;;;;;5048756;28;20179;-73
2021/08/02 04:25:06;;;;;;;3.03;2.00;;;15.40;99.90;;;;;;5049314;28;20426;-73
2021/08/02 04:27:32;;;;;;;2.00;1.80;;;15.40;99.90;;;;;;5049139;28;20861;-73
2021/08/02 04:29:58;;;;;;;5.03;2.20;;;15.40;99.90;;;;;;5048571;28;20402;-73
2021/08/02 04:32:23;;;;;;;6.63;2.03;;;15.40;99.90;;;;;;5048653;28;20196;-72
2021/08/02 04:34:49;;;;;;;2.77;1.77;;;15.40;99.90;;;;;;5048805;28;20255;-72
2021/08/02 04:37:14;;;;;;;2.27;2.07;;;15.40;99.90;;;;;;5048595;28;20165;-72
2021/08/02 04:39:40;;;;;;;4.93;2.43;;;15.40;99.90;;;;;;5036690;28;20219;-72
2021/08/02 04:42:05;;;;;;;2.40;2.10;;;15.40;99.90;;;;;;5035704;28;20557;-72
2021/08/02 04:44:31;;;;;;;3.00;2.50;;;15.40;99.90;;;;;;5035534;28;20645;-72
2021/08/02 04:46:57;;;;;;;5.40;2.33;;;15.40;99.90;;;;;;5035209;28;20242;-72
2021/08/02 04:49:22;;;;;;;2.83;1.90;;;15.50;99.90;;;;;;5035345;28;20161;-72
2021/08/02 04:51:48;;;;;;;5.40;3.17;;;15.50;99.90;;;;;;5035098;28;20564;-72
2021/08/02 04:54:13;;;;;;;3.30;2.40;;;15.50;99.90;;;;;;5035055;28;20157;-72
2021/08/02 04:56:39;;;;;;;3.20;1.97;;;15.50;99.90;;;;;;5049529;28;20238;-72
2021/08/02 04:59:04;;;;;;;2.70;2.40;;;15.50;99.90;;;;;;5040799;28;20263;-72
2021/08/02 05:01:30;;;;;;;3.17;1.77;;;15.60;99.90;;;;;;5035743;28;20275;-72
2021/08/02 05:03:55;;;;;;;3.53;2.33;;;15.60;99.90;;;;;;5035062;28;20208;-72
2021/08/02 05:06:21;;;;;;;2.67;1.80;;;15.60;99.90;;;;;;5034713;28;20649;-72
2021/08/02 05:08:47;;;;;;;5.67;2.07;;;15.60;99.90;;;;;;5035123;28;20189;-72
2021/08/02 05:11:12;;;;;;;4.13;2.30;;;15.60;99.90;;;;;;5035229;28;20204;-72
2021/08/02 05:13:38;;;;;;;4.70;2.10;;;15.60;99.90;;;;;;5034515;28;20529;-72
2021/08/02 05:16:06;;;;;;;2.67;2.13;;;15.60;99.90;;;;;;5035241;28;20630;-72
2021/08/02 05:18:32;;;;;;;3.40;2.07;;;15.60;99.90;;;;;;5035259;28;20196;-72
2021/08/02 05:20:58;;;;;;;3.47;2.20;;;15.70;99.90;;;;;;5036839;28;20439;-72
2021/08/02 05:23:23;;;;;;;2.57;2.37;;;15.70;99.90;;;;;;5034689;28;20235;-72
2021/08/02 05:25:49;;;;;;;7.17;2.50;;;15.70;99.90;;;;;;5034559;28;20173;-72
2021/08/02 05:28:14;;;;;;;2.67;1.93;;;15.70;99.90;;;;;;5034172;28;20210;-72
2021/08/02 05:30:40;;;;;;;4.53;2.93;;;15.80;99.90;;;;;;5036366;28;20176;-72
2021/08/02 05:33:05;;;;;;;3.00;1.80;;;15.80;99.90;;;;;;5049344;28;20678;-72
2021/08/02 05:35:31;;;;;;;3.47;2.13;;;15.80;99.90;;;;;;5040427;28;20250;-72
2021/08/02 05:37:56;;;;;;;3.77;2.20;;;15.80;99.90;;;;;;5046698;28;20261;-72
2021/08/02 05:40:22;;;;;;;3.70;2.70;;;15.90;99.90;;;;;;5037024;28;20192;-72
2021/08/02 05:42:48;;;;;;;3.50;2.00;;;15.90;99.90;;;;;;5053628;28;20176;-72
2021/08/02 05:45:14;;;;;;;6.20;2.80;;;16.00;99.90;;;;;;5047790;28;20419;-72
2021/08/02 05:47:40;;;;;;;2.20;2.00;;;16.00;99.90;;;;;;5033598;28;20215;-72
2021/08/02 05:50:07;;;;;;;4.07;2.80;;;16.10;99.90;;;;;;5037956;28;20192;-72
2021/08/02 05:52:32;;;;;;;2.80;2.60;;;16.10;99.90;;;;;;5034405;28;20518;-72
2021/08/02 05:54:58;;;;;;;3.13;2.27;;;16.00;99.90;;;;;;5034006;28;20780;-72
2021/08/02 05:57:24;;;;;;;4.20;2.37;;;16.10;99.90;;;;;;5033840;28;20157;-72
2021/08/02 05:59:49;;;;;;;6.13;2.33;;;16.10;99.90;;;;;;5033496;28;20168;-72
2021/08/02 06:02:15;;;;;;;2.57;2.07;;;16.10;99.90;;;;;;5040663;28;20203;-72
2021/08/02 06:04:41;;;;;;;6.70;2.00;;;16.10;99.90;;;;;;5039268;28;20518;-72
2021/08/02 06:07:07;;;;;;;2.57;1.77;;;16.10;99.90;;;;;;5052744;28;20489;-72
2021/08/02 06:09:33;;;;;;;4.60;2.80;;;16.10;99.90;;;;;;5033837;28;20516;-72
2021/08/02 06:11:59;;;;;;;3.63;2.10;;;16.20;99.90;;;;;;5034592;28;20187;-72
2021/08/02 06:14:24;;;;;;;3.87;2.40;;;16.20;99.90;;;;;;5032766;28;20427;-72
2021/08/02 06:16:50;;;;;;;5.20;2.87;;;16.30;99.90;;;;;;5035490;28;20180;-72
2021/08/02 06:19:16;;;;;;;4.30;3.00;;;16.30;99.90;;;;;;5038638;28;20184;-72
2021/08/02 06:21:41;;;;;;;6.50;3.27;;;16.30;99.90;;;;;;5038205;28;20550;-72
2021/08/02 06:24:07;;;;;;;5.50;3.60;;;16.40;99.90;;;;;;5039990;28;20932;-72
2021/08/02 06:26:33;;;;;;;6.00;3.50;;;16.50;99.90;;;;;;5040138;28;20211;-72
2021/08/02 06:28:58;;;;;;;4.20;3.73;;;16.60;99.90;;;;;;5037646;28;20172;-72
2021/08/02 06:31:24;;;;;;;4.17;3.20;;;16.70;99.90;;;;;;5041162;28;20168;-72
2021/08/02 06:33:50;;;;;;;4.97;3.60;;;16.80;99.90;;;;;;5040011;28;20256;-72
2021/08/02 06:36:18;;;;;;;5.47;3.30;;;16.80;99.90;;;;;;5042366;28;20183;-73
2021/08/02 06:38:44;;;;;;;4.87;2.43;;;16.80;99.90;;;;;;5045361;28;20649;-73
2021/08/02 06:41:10;;;;;;;4.43;3.17;;;16.90;99.90;;;;;;5052542;28;20402;-73
2021/08/02 06:43:35;;;;;;;6.50;3.93;;;16.90;99.90;;;;;;5034319;28;20915;-72
2021/08/02 06:46:01;;;;;;;5.30;4.20;;;17.00;99.90;;;;;;5037208;28;20172;-72
2021/08/02 06:48:27;;;;;;;6.50;4.93;;;17.00;99.90;;;;;;5045058;28;20196;-72
2021/08/02 06:50:52;;;;;;;10.13;5.90;;;17.00;99.90;;;;;;5050121;28;20255;-72
2021/08/02 06:53:18;;;;;;;9.13;6.23;;;17.00;99.90;;;;;;5048362;28;20439;-72
2021/08/02 06:55:44;;;;;;;10.80;7.83;;;17.00;99.90;;;;;;5035771;28;20184;-73
2021/08/02 06:58:10;;;;;;;7.63;6.50;;;17.00;99.90;;;;;;5032524;28;20556;-72
2021/08/02 07:00:35;;;;;;;6.87;5.90;;;17.00;99.90;;;;;;5044541;28;20294;-73
2021/08/02 07:03:01;;;;;;;8.17;5.73;;;17.00;99.90;;;;;;5049540;28;20256;-73
2021/08/02 07:05:27;;;;;;;7.83;6.67;;;17.10;99.90;;;;;;5052524;28;20207;-73
2021/08/02 07:07:53;;;;;;;7.03;5.20;;;17.10;99.90;;;;;;5043330;28;20192;-73
2021/08/02 07:10:19;;;;;;;5.70;5.10;;;17.10;99.90;;;;;;5036343;28;20459;-73
2021/08/02 07:12:44;;;;;;;6.70;4.20;;;17.10;99.90;;;;;;5040419;28;20488;-73
2021/08/02 07:15:10;;;;;;;3.90;3.50;;;17.10;99.90;;;;;;5038945;28;20544;-73
2021/08/02 07:17:36;;;;;;;4.10;3.17;;;17.10;99.90;;;;;;5032943;28;20188;-73
2021/08/02 07:20:02;;;;;;;7.60;4.13;;;17.10;99.90;;;;;;5037572;28;20189;-73
2021/08/02 07:22:27;;;;;;;3.73;3.37;;;17.10;99.90;;;;;;5041075;28;20594;-73
2021/08/02 07:24:53;;;;;;;6.03;3.80;;;17.10;99.90;;;;;;5037009;28;20431;-73
2021/08/02 07:27:18;;;;;;;7.37;4.43;;;17.10;99.90;;;;;;5037395;28;20204;-73
2021/08/02 07:29:44;;;;;;;6.40;4.13;;;17.10;99.90;;;;;;5039265;28;20180;-73
2021/08/02 07:32:09;;;;;;;8.37;5.20;;;17.20;99.90;;;;;;5040008;28;20571;-73
2021/08/02 07:34:35;;;;;;;6.73;4.63;;;17.20;99.90;;;;;;5031466;28;20645;-73
2021/08/02 07:37:01;;;;;;;6.50;4.20;;;17.30;99.90;;;;;;5037716;28;20190;-73
2021/08/02 07:39:26;;;;;;;5.20;2.87;;;17.30;99.90;;;;;;5036385;28;20251;-73
2021/08/02 07:41:52;;;;;;;6.80;3.50;;;17.40;99.90;;;;;;5035573;28;20620;-73
2021/08/02 07:44:17;;;;;;;3.87;2.63;;;17.40;99.90;;;;;;5039031;28;20188;-73
2021/08/02 07:46:43;;;;;;;7.80;2.47;;;17.50;99.90;;;;;;5038986;28;20207;-73
2021/08/02 07:49:08;;;;;;;3.50;2.07;;;17.60;99.90;;;;;;5035848;28;20638;-73
2021/08/02 07:51:35;;;;;;;4.33;2.77;;;17.70;99.90;;;;;;5036005;28;20634;-73
2021/08/02 07:54:02;;;;;;;4.93;2.80;;;17.70;99.90;;;;;;5049595;28;20171;-73
2021/08/02 07:56:29;;;;;;;7.90;4.40;;;17.90;99.90;;;;;;5034137;28;20427;-73
2021/08/02 07:58:55;;;;;;;9.57;4.90;;;17.90;99.90;;;;;;5038784;28;20928;-73
2021/08/02 08:01:20;;;;;;;8.77;5.30;;;18.00;99.90;;;;;;5035939;28;20439;-73
2021/08/02 08:03:46;;;;;;;13.33;6.90;;;18.20;99.90;;;;;;5040827;28;20177;-73
2021/08/02 08:06:12;;;;;;;7.47;3.87;;;18.40;99.90;;;;;;5049126;28;20172;-73
2021/08/02 08:08:37;;;;;;;6.10;3.90;;;18.70;99.90;;;;;;5041866;28;20230;-73
2021/08/02 08:11:03;;;;;;;11.10;5.07;;;18.80;99.90;;;;;;5041950;28;20185;-73
2021/08/02 08:13:28;;;;;;;6.93;4.20;;;19.00;99.90;;;;;;5032011;28;20157;-73
2021/08/02 08:15:54;;;;;;;3.90;3.47;;;19.00;99.90;;;;;;5045694;28;20538;-73
2021/08/02 08:18:19;;;;;;;8.43;3.10;;;19.10;99.90;;;;;;5040394;28;20172;-73
2021/08/02 08:20:45;;;;;;;6.20;3.40;;;19.10;99.90;;;;;;5040065;28;20181;-73
2021/08/02 08:23:11;;;;;;;2.93;2.17;;;19.10;99.90;;;;;;5039349;28;20190;-73
2021/08/02 08:25:36;;;;;;;5.13;2.27;;;19.10;99.90;;;;;;5040985;28;20286;-73
2021/08/02 08:28:02;;;;;;;5.83;2.70;;;19.00;99.90;;;;;;5042969;28;20208;-73
2021/08/02 08:30:28;;;;;;;3.10;2.40;;;19.00;99.90;;;;;;5037736;28;20219;-72
2021/08/02 08:32:54;;;;;;;3.20;2.67;;;18.90;99.90;;;;;;5040131;28;20192;-73
2021/08/02 08:35:20;;;;;;;5.43;3.87;;;18.90;99.90;;;;;;5037181;28;20546;-73
2021/08/02 08:37:46;;;;;;;3.80;2.37;;;18.90;99.90;;;;;;5041189;28;20223;-73
2021/08/02 08:40:12;;;;;;;3.47;2.47;;;18.90;99.90;;;;;;5043659;28;20434;-74
2021/08/02 08:42:40;;;;;;;3.53;2.50;;;18.90;99.90;;;;;;5041846;28;20246;-73
2021/08/02 08:45:06;;;;;;;4.50;3.17;;;18.80;99.90;;;;;;5043027;28;20439;-73
2021/08/02 08:47:34;;;;;;;4.47;2.90;;;18.90;99.90;;;;;;5039525;28;20455;-73
2021/08/02 08:50:02;;;;;;;5.03;2.60;;;18.90;99.90;;;;;;5040281;28;20485;-73
2021/08/02 08:52:29;;;;;;;2.30;2.10;;;18.90;99.90;;;;;;5041372;28;20939;-73
2021/08/02 08:54:54;;;;;;;6.03;3.43;;;19.00;99.90;;;;;;5040990;28;20501;-73
2021/08/02 08:57:20;;;;;;;2.17;2.03;;;19.00;99.90;;;;;;5045302;28;20439;-73
2021/08/02 08:59:47;;;;;;;1.83;1.70;;;19.10;99.90;;;;;;5044662;28;20196;-73
2021/08/02 09:02:13;;;;;;;3.60;2.10;;;19.10;99.90;;;;;;5042524;28;20188;-73
2021/08/02 09:04:40;;;;;;;3.43;2.47;;;19.10;99.90;;;;;;5036857;28;20438;-73
2021/08/02 09:07:06;;;;;;;2.40;2.20;;;19.10;99.90;;;;;;5044805;28;20692;-73
2021/08/02 09:09:35;;;;;;;3.83;2.30;;;19.10;99.90;;;;;;5042940;28;20416;-73
2021/08/02 09:14:53;;;;;;;2.37;2.17;;;19.00;99.90;;;;;;5037351;28;20657;-73
2021/08/02 09:17:36;;;;;;;2.53;1.70;;;19.00;99.90;;;;;;5022046;28;20427;-73
2021/08/02 09:22:43;;;;;;;1.57;1.47;;;19.00;99.90;;;;;;5095121;27;20523;-71
2021/08/02 09:27:46;;;;;;;1.60;1.50;;;19.00;99.90;;;;;;5048768;28;20659;-71
2021/08/02 09:32:51;;;;;;;2.23;1.23;;;18.90;99.90;;;;;;5060214;28;20636;-71
2021/08/02 09:35:39;;;;;;;2.87;1.70;;;18.90;99.90;;;;;;5045507;28;20422;-72
2021/08/02 09:38:08;;;;;;;1.57;1.30;;;18.90;99.90;;;;;;5043171;28;20864;-72
2021/08/02 09:40:39;;;;;;;1.33;1.23;;;19.00;99.90;;;;;;5062867;28;20441;-71
2021/08/02 09:43:05;;;;;;;4.30;1.57;;;19.00;99.90;;;;;;5053103;28;20442;-72
2021/08/02 09:45:40;;;;;;;2.43;1.57;;;19.10;99.90;;;;;;5046707;28;20418;-69
2021/08/02 09:48:06;;;;;;;1.83;1.73;;;19.10;99.90;;;;;;5043198;28;20434;-72
2021/08/02 09:50:32;;;;;;;2.10;1.80;;;19.10;99.90;;;;;;5042920;28;20460;-71
2021/08/02 09:52:58;;;;;;;2.23;1.67;;;19.00;99.90;;;;;;5052449;28;20431;-71
2021/08/02 09:55:25;;;;;;;2.77;1.70;;;19.00;99.90;;;;;;5046360;28;20172;-71
2021/08/02 09:57:53;;;;;;;1.87;1.73;;;18.90;99.90;;;;;;5044396;28;20469;-71
2021/08/02 10:00:19;;;;;;;1.63;1.40;;;19.00;99.90;;;;;;5047614;28;20514;-71
2021/08/02 10:02:47;;;;;;;4.30;2.13;;;19.00;99.90;;;;;;5052629;28;20449;-72
2021/08/02 10:05:16;;;;;;;2.00;1.90;;;18.90;99.90;;;;;;5045648;28;20461;-71
2021/08/02 10:07:43;;;;;;;2.17;1.50;;;18.90;99.90;;;;;;5044295;28;20437;-72
2021/08/02 10:10:10;;;;;;;3.60;2.47;;;19.00;99.90;;;;;;5046421;28;21093;-71
2021/08/02 10:12:39;;;;;;;2.70;1.80;;;19.00;99.90;;;;;;5046442;28;20534;-71
2021/08/02 10:15:07;;;;;;;3.63;2.07;;;18.90;99.90;;;;;;5043988;28;20436;-71
2021/08/02 10:17:34;;;;;;;2.90;2.60;;;18.90;99.90;;;;;;5047974;28;20460;-71
2021/08/02 10:20:01;;;;;;;2.43;1.70;;;18.90;99.90;;;;;;5044203;28;20427;-71
2021/08/02 10:22:27;;;;;;;3.57;2.30;;;19.00;99.90;;;;;;5048412;28;20427;-71
2021/08/02 10:24:52;;;;;;;2.57;2.07;;;19.00;99.90;;;;;;5045128;28;20439;-71
2021/08/02 10:27:33;;;;;;;4.23;2.40;;;19.00;99.90;;;;;;5042014;28;20169;-71
2021/08/02 10:29:59;;;;;;;2.03;1.83;;;19.10;99.90;;;;;;5042679;28;20257;-71
2021/08/02 10:32:28;;;;;;;2.37;2.20;;;19.10;99.90;;;;;;5052601;28;20465;-71
2021/08/02 10:34:56;;;;;;;3.33;2.17;;;19.10;99.90;;;;;;5048094;28;20169;-71
2021/08/02 10:37:37;;;;;;;3.70;2.07;;;19.10;99.90;;;;;;5043598;28;20438;-71
2021/08/02 10:40:06;;;;;;;4.63;2.37;;;19.20;99.90;;;;;;5043130;28;20435;-71
2021/08/02 10:42:32;;;;;;;3.27;2.00;;;19.20;99.90;;;;;;5046654;28;20465;-71
2021/08/02 10:44:59;;;;;;;2.27;2.07;;;19.30;99.90;;;;;;5033817;28;20435;-71
2021/08/02 10:47:37;;;;;;;3.20;2.23;;;19.30;99.90;;;;;;5037700;28;20558;-71
2021/08/02 10:50:03;;;;;;;2.93;2.60;;;19.40;99.90;;;;;;5031807;28;20464;-71
2021/08/02 10:52:30;;;;;;;3.20;2.90;;;19.60;99.90;;;;;;5035661;28;20980;-71
2021/08/02 10:54:57;;;;;;;3.63;3.33;;;19.60;99.90;;;;;;5032532;28;20462;-71
2021/08/02 10:57:22;;;;;;;3.70;3.40;;;19.70;99.90;;;;;;5034050;28;20842;-71
2021/08/02 10:59:48;;;;;;;3.87;3.57;;;19.70;99.90;;;;;;5032261;28;20458;-71
2021/08/02 11:02:14;;;;;;;4.53;4.10;;;19.70;99.90;;;;;;5032947;28;20231;-71
2021/08/02 11:04:40;;;;;;;4.90;3.90;;;19.70;99.90;;;;;;5031338;28;20645;-71
2021/08/02 11:07:07;;;;;;;4.83;3.83;;;19.80;99.90;;;;;;5031461;28;20215;-71
2021/08/02 11:09:36;;;;;;;4.33;3.93;;;19.90;99.90;;;;;;5030972;28;20434;-71
2021/08/02 11:12:11;;;;;;;5.20;3.80;;;20.00;99.90;;;;;;5032659;28;20517;-71
2021/08/02 11:14:47;;;;;;;4.30;3.50;;;20.10;99.90;;;;;;5028933;28;20435;-71
2021/08/02 11:17:17;;;;;;;3.50;3.20;;;20.10;99.90;;;;;;5026748;28;20423;-72
2021/08/02 11:19:43;;;;;;;4.77;3.20;;;20.10;99.90;;;;;;5032920;28;20427;-71
2021/08/02 11:22:10;;;;;;;3.00;2.60;;;20.10;99.90;;;;;;5031999;28;20441;-71
2021/08/02 11:24:38;;;;;;;3.77;3.00;;;20.00;99.90;;;;;;5030529;28;20794;-71
2021/08/02 11:27:06;;;;;;;3.50;2.90;;;20.00;99.90;;;;;;5031567;28;20785;-71
2021/08/02 11:29:34;;;;;;;3.50;3.20;;;20.00;99.90;;;;;;5030101;28;20453;-71
2021/08/02 11:34:40;;;;;;;3.00;2.70;;;20.00;99.90;;;;;;5060661;28;20536;-71
2021/08/02 11:37:09;;;;;;;3.27;2.97;;;20.00;99.90;;;;;;5061583;28;20430;-71
2021/08/02 11:39:39;;;;;;;3.10;2.73;;;20.00;99.90;;;;;;5051181;28;20422;-71
2021/08/02 11:44:44;;;;;;;3.37;3.00;;;20.00;99.90;;;;;;5101823;27;20541;-73
2021/08/02 11:47:14;;;;;;;2.77;2.57;;;20.10;99.90;;;;;;5107889;28;20955;-71
2021/08/02 11:49:40;;;;;;;2.47;2.17;;;20.10;99.90;;;;;;5104706;28;20485;-71
2021/08/02 11:52:08;;;;;;;3.20;2.60;;;20.20;99.90;;;;;;5103642;28;20510;-71
2021/08/02 11:54:34;;;;;;;2.80;2.13;;;20.20;99.90;;;;;;5102848;28;20939;-71
2021/08/02 11:57:00;;;;;;;2.37;2.13;;;20.20;99.90;;;;;;5107934;28;21948;-71
2021/08/02 11:59:27;;;;;;;4.10;2.30;;;20.30;99.90;;;;;;5101236;28;20436;-71
2021/08/02 12:01:56;;;;;;;2.87;2.40;;;20.40;99.90;;;;;;5096877;28;20254;-71
2021/08/02 12:04:23;;;;;;;3.43;2.80;;;20.50;99.90;;;;;;5095979;28;20825;-71
2021/08/02 12:06:58;;;;;;;4.27;2.97;;;20.70;99.90;;;;;;5095775;28;20433;-71
2021/08/02 12:09:33;;;;;;;3.90;2.53;;;20.70;99.90;;;;;;5096492;28;20785;-71
2021/08/02 12:12:01;;;;;;;2.10;1.83;;;20.80;99.90;;;;;;5097387;28;20462;-71
2021/08/02 12:14:28;;;;;;;2.90;2.40;;;20.90;99.90;;;;;;5097702;27;20425;-71
2021/08/02 12:17:03;;;;;;;3.23;2.87;;;21.00;99.90;;;;;;5092872;28;20493;-72
2021/08/02 12:19:29;;;;;;;3.17;2.87;;;21.20;99.90;;;;;;5096945;28;20440;-71
2021/08/02 12:21:56;;;;;;;3.83;2.83;;;21.20;99.90;;;;;;5094237;28;20425;-71
2021/08/02 12:24:23;;;;;;;2.40;2.20;;;21.20;99.90;;;;;;5092379;28;21096;-71
2021/08/02 12:26:50;;;;;;;6.07;4.00;;;21.20;99.90;;;;;;5098109;28;20520;-71
2021/08/02 12:29:21;;;;;;;2.77;2.00;;;21.10;99.90;;;;;;5096124;28;20428;-71
2021/08/02 12:31:53;;;;;;;2.93;2.47;;;21.10;99.90;;;;;;5095782;28;20416;-71
2021/08/02 12:34:19;;;;;;;2.70;2.50;;;21.20;99.90;;;;;;5092462;28;20435;-71
2021/08/02 12:36:44;;;;;;;2.77;2.47;;;21.20;99.90;;;;;;5100209;28;20534;-71
2021/08/02 12:39:10;;;;;;;3.60;2.43;;;21.30;99.90;;;;;;5094229;28;20179;-71
2021/08/02 12:41:37;;;;;;;3.70;2.40;;;21.30;99.90;;;;;;5099605;28;20186;-71
2021/08/02 12:44:03;;;;;;;4.70;3.03;;;21.20;99.90;;;;;;5089733;28;20236;-71
2021/08/02 12:46:28;;;;;;;3.00;2.73;;;21.20;99.90;;;;;;5098064;28;20925;-71
2021/08/02 12:48:54;;;;;;;2.73;2.20;;;21.20;99.90;;;;;;5087446;28;20612;-71
2021/08/02 12:51:20;;;;;;;4.53;3.10;;;21.30;99.90;;;;;;5093428;28;20198;-71
2021/08/02 12:53:45;;;;;;;4.00;3.10;;;21.40;99.90;;;;;;5094036;28;20226;-71
2021/08/02 12:56:13;;;;;;;2.70;2.50;;;21.60;99.90;;;;;;5083661;28;20656;-71
2021/08/02 12:58:39;;;;;;;3.83;2.57;;;21.70;99.90;;;;;;5089902;28;20203;-71
2021/08/02 13:01:08;;;;;;;3.00;2.40;;;21.70;99.90;;;;;;5085662;28;20436;-71
2021/08/02 13:03:35;;;;;;;6.13;3.00;;;21.70;99.90;;;;;;5077801;28;20238;-71
2021/08/02 13:06:01;;;;;;;4.27;2.57;;;21.70;99.50;;;;;;5077119;28;20958;-72
2021/08/02 13:08:26;;;;;;;3.43;2.40;;;21.60;99.40;;;;;;5081052;28;20467;-72
2021/08/02 13:10:52;;;;;;;3.27;2.77;;;21.70;99.90;;;;;;5091525;28;20253;-72
2021/08/02 13:13:17;;;;;;;2.43;2.23;;;21.70;99.90;;;;;;5089138;28;20178;-72
2021/08/02 13:15:43;;;;;;;3.03;2.23;;;21.80;99.60;;;;;;5076156;28;20652;-71